Widner, Indiana
Current Conditions -  °F | °C
As of 2:50 AM on Sunday 26 Oct 2014 (Local Time) from KLWV Reporting Station
Haze Haze  
Wind Chill: 53°   Ceiling: Unl
Heat Index: 53°   Visibility: 3mi
Dew Point: 46°   Wind: 5mph
Humidity: 77%   Direction: 320°NW
Pressure: 30.02"   Gusts: NA
Location:  38.8517°N, 87.414°W
Report Text: KLWV 260750Z AUTO 32004KT 3SM HZ CLR 12/08 A3002 RMK AO2 SLP162 T01170078
Loading
Personal Weather Stations






























Interactive Weather Map
Tropical Storm Tracking
New forecast layout! Learn more

10-Day Weather Forecast

Advertisements
Track Severe Weather on mobile